createdAt,value
2018-06-14T00:00:48.910Z,1017.43
2018-06-14T00:02:16.050Z,1017.46
2018-06-14T00:03:43.421Z,1017.48
2018-06-14T00:05:11.149Z,1017.49
2018-06-14T00:06:38.533Z,1017.52
2018-06-14T00:08:05.806Z,1017.52
2018-06-14T00:09:33.403Z,1017.52
2018-06-14T00:11:00.624Z,1017.54
2018-06-14T00:12:27.977Z,1017.53
2018-06-14T00:13:55.404Z,1017.50
2018-06-14T00:15:22.846Z,1017.48
2018-06-14T00:16:50.161Z,1017.50
2018-06-14T00:18:17.358Z,1017.51
2018-06-14T00:19:44.765Z,1017.50
2018-06-14T00:21:13.114Z,1017.53
2018-06-14T00:22:39.595Z,1017.55
2018-06-14T00:24:06.653Z,1017.58
2018-06-14T00:25:34.079Z,1017.57
2018-06-14T00:27:01.434Z,1017.57
2018-06-14T00:28:28.781Z,1017.58
2018-06-14T00:29:56.094Z,1017.58
2018-06-14T00:31:23.643Z,1017.58
2018-06-14T00:32:51.144Z,1017.57
2018-06-14T00:34:18.588Z,1017.61
2018-06-14T00:35:45.908Z,1017.65
2018-06-14T00:37:13.303Z,1017.66
2018-06-14T00:38:40.752Z,1017.65
2018-06-14T00:40:08.105Z,1017.64
2018-06-14T00:41:35.561Z,1017.63
2018-06-14T00:43:03.170Z,1017.64
2018-06-14T00:44:30.545Z,1017.67
2018-06-14T00:45:57.945Z,1017.72
2018-06-14T00:47:25.529Z,1017.73
2018-06-14T00:48:52.830Z,1017.76
2018-06-14T00:50:20.247Z,1017.78
2018-06-14T00:51:47.628Z,1017.77
2018-06-14T00:53:14.954Z,1017.78
2018-06-14T00:54:42.444Z,1017.81
2018-06-14T00:56:09.897Z,1017.80
2018-06-14T00:57:37.364Z,1017.78
2018-06-14T00:59:04.824Z,1017.76
2018-06-14T01:00:32.250Z,1017.74
2018-06-14T01:01:59.537Z,1017.74
2018-06-14T01:03:26.964Z,1017.75
2018-06-14T01:04:54.327Z,1017.77
2018-06-14T01:06:21.609Z,1017.74
2018-06-14T01:07:49.028Z,1017.75
2018-06-14T01:09:16.325Z,1017.73
2018-06-14T01:10:43.608Z,1017.71
2018-06-14T01:12:11.060Z,1017.71
2018-06-14T01:13:38.378Z,1017.73
2018-06-14T01:15:05.893Z,1017.76
2018-06-14T01:16:33.561Z,1017.77
2018-06-14T01:18:00.874Z,1017.79
2018-06-14T01:19:28.377Z,1017.80
2018-06-14T01:20:55.852Z,1017.81
2018-06-14T01:22:23.253Z,1017.83
2018-06-14T01:23:50.604Z,1017.82
2018-06-14T01:25:17.971Z,1017.83
2018-06-14T01:26:45.387Z,1017.83
2018-06-14T01:28:12.368Z,1017.83
2018-06-14T01:29:39.975Z,1017.86
2018-06-14T01:31:07.501Z,1017.88
2018-06-14T01:32:35.051Z,1017.95
2018-06-14T01:34:02.236Z,1017.97
2018-06-14T01:35:29.637Z,1017.97
2018-06-14T01:36:57.468Z,1017.93
2018-06-14T01:38:24.873Z,1017.92
2018-06-14T01:39:52.140Z,1017.89
2018-06-14T01:41:19.520Z,1017.88
2018-06-14T01:42:46.653Z,1017.89
2018-06-14T01:44:14.191Z,1017.89
2018-06-14T01:45:41.644Z,1017.89
2018-06-14T01:47:09.060Z,1017.89
2018-06-14T01:48:36.551Z,1017.92
2018-06-14T01:50:03.758Z,1017.90
2018-06-14T01:51:31.200Z,1017.89
2018-06-14T01:52:58.679Z,1017.88
2018-06-14T01:54:26.267Z,1017.90
2018-06-14T01:55:59.789Z,1017.91
2018-06-14T01:57:21.356Z,1017.93
2018-06-14T01:58:48.490Z,1017.97
2018-06-14T02:00:16.024Z,1018.01
2018-06-14T02:01:43.209Z,1018.03
2018-06-14T02:03:10.793Z,1018.04
2018-06-14T02:04:38.282Z,1018.04
2018-06-14T02:06:05.583Z,1018.01
2018-06-14T02:07:33.139Z,1017.97
2018-06-14T02:09:00.435Z,1017.97
2018-06-14T02:10:27.815Z,1017.98
2018-06-14T02:11:55.002Z,1018.00
2018-06-14T02:13:22.503Z,1018.01
2018-06-14T02:14:49.850Z,1018.02
2018-06-14T02:16:17.312Z,1018.04
2018-06-14T02:17:44.798Z,1018.01
2018-06-14T02:19:11.980Z,1017.97
2018-06-14T02:20:39.561Z,1017.99
2018-06-14T02:22:06.895Z,1018.05
2018-06-14T02:23:34.348Z,1018.09
2018-06-14T02:25:01.877Z,1018.11
2018-06-14T02:26:29.325Z,1018.13
2018-06-14T02:27:56.462Z,1018.13
2018-06-14T02:29:23.995Z,1018.14
2018-06-14T02:30:51.451Z,1018.13
2018-06-14T02:32:18.686Z,1018.17
2018-06-14T02:33:45.690Z,1018.18
2018-06-14T02:35:13.117Z,1018.20
2018-06-14T02:36:40.499Z,1018.23
2018-06-14T02:38:08.105Z,1018.26
2018-06-14T02:39:35.626Z,1018.28
2018-06-14T02:41:02.933Z,1018.28
2018-06-14T02:42:30.379Z,1018.33
2018-06-14T02:43:57.658Z,1018.37
2018-06-14T02:45:25.180Z,1018.40
2018-06-14T02:46:52.419Z,1018.43
2018-06-14T02:48:19.755Z,1018.42
2018-06-14T02:49:47.137Z,1018.44
2018-06-14T02:51:14.622Z,1018.46
2018-06-14T02:52:41.986Z,1018.47
2018-06-14T02:54:09.346Z,1018.51
2018-06-14T02:55:36.679Z,1018.52
2018-06-14T02:57:04.248Z,1018.54
2018-06-14T02:58:31.799Z,1018.58
2018-06-14T02:59:59.175Z,1018.60
2018-06-14T03:01:26.461Z,1018.60
2018-06-14T03:02:54.084Z,1018.62
2018-06-14T03:04:21.451Z,1018.61
2018-06-14T03:05:48.852Z,1018.64
2018-06-14T03:07:16.409Z,1018.65
2018-06-14T03:08:43.623Z,1018.68
2018-06-14T03:10:11.093Z,1018.70
2018-06-14T03:11:38.504Z,1018.73
2018-06-14T03:13:05.786Z,1018.71
2018-06-14T03:14:33.161Z,1018.71
2018-06-14T03:16:00.495Z,1018.69
2018-06-14T03:17:27.875Z,1018.69
2018-06-14T03:18:55.338Z,1018.67
2018-06-14T03:20:22.926Z,1018.70
2018-06-14T03:21:50.142Z,1018.72
2018-06-14T03:23:17.691Z,1018.73
2018-06-14T03:24:45.065Z,1018.74
2018-06-14T03:26:12.307Z,1018.71
2018-06-14T03:27:39.691Z,1018.71
2018-06-14T03:29:07.317Z,1018.69
2018-06-14T03:30:34.798Z,1018.67
2018-06-14T03:32:02.059Z,1018.66
2018-06-14T03:33:29.576Z,1018.64
2018-06-14T03:34:57.157Z,1018.64
2018-06-14T03:36:24.463Z,1018.64
2018-06-14T03:37:51.979Z,1018.65
2018-06-14T03:39:19.098Z,1018.62
2018-06-14T03:40:46.612Z,1018.60
2018-06-14T03:42:13.788Z,1018.60
2018-06-14T03:43:41.113Z,1018.58
2018-06-14T03:45:08.339Z,1018.55
2018-06-14T03:46:35.769Z,1018.55
2018-06-14T03:48:03.211Z,1018.53
2018-06-14T03:49:30.768Z,1018.56
2018-06-14T03:50:58.159Z,1018.53
2018-06-14T03:52:25.674Z,1018.50
2018-06-14T03:53:53.050Z,1018.47
2018-06-14T03:55:20.283Z,1018.39
2018-06-14T03:56:47.636Z,1018.34
2018-06-14T03:58:15.151Z,1018.29
2018-06-14T03:59:42.378Z,1018.25
2018-06-14T04:01:09.964Z,1018.25
2018-06-14T04:02:37.385Z,1018.26
2018-06-14T04:04:04.956Z,1018.26
2018-06-14T04:05:32.286Z,1018.28
2018-06-14T04:06:59.965Z,1018.29
2018-06-14T04:08:27.446Z,1018.29
2018-06-14T04:09:54.961Z,1018.28
2018-06-14T04:11:22.298Z,1018.28
2018-06-14T04:12:49.655Z,1018.29
2018-06-14T04:14:16.950Z,1018.26
2018-06-14T04:15:44.221Z,1018.29
2018-06-14T04:17:11.583Z,1018.30
2018-06-14T04:18:39.089Z,1018.32
2018-06-14T04:20:06.454Z,1018.30
2018-06-14T04:21:33.947Z,1018.30
2018-06-14T04:23:01.514Z,1018.32
2018-06-14T04:24:28.983Z,1018.34
2018-06-14T04:25:56.211Z,1018.33
2018-06-14T04:27:23.776Z,1018.33
2018-06-14T04:28:50.988Z,1018.33
2018-06-14T04:30:18.418Z,1018.33
2018-06-14T04:31:45.927Z,1018.34
2018-06-14T04:33:13.348Z,1018.31
2018-06-14T04:34:40.565Z,1018.26
2018-06-14T04:36:07.981Z,1018.25
2018-06-14T04:37:35.341Z,1018.28
2018-06-14T04:39:02.678Z,1018.30
2018-06-14T04:40:30.457Z,1018.28
2018-06-14T04:41:57.818Z,1018.27
2018-06-14T04:43:25.322Z,1018.26
2018-06-14T04:44:52.732Z,1018.25
2018-06-14T04:46:20.228Z,1018.24
2018-06-14T04:47:47.479Z,1018.20
2018-06-14T04:49:14.850Z,1018.18
2018-06-14T04:50:42.402Z,1018.22
2018-06-14T04:52:09.669Z,1018.23
2018-06-14T04:53:37.170Z,1018.25
2018-06-14T04:55:04.535Z,1018.30
2018-06-14T04:56:32.011Z,1018.37
2018-06-14T04:57:59.518Z,1018.45
2018-06-14T04:59:27.085Z,1018.50
2018-06-14T05:00:54.452Z,1018.48
2018-06-14T05:02:22.064Z,1018.46
2018-06-14T05:03:49.476Z,1018.56
2018-06-14T05:05:17.244Z,1018.60
2018-06-14T05:06:44.534Z,1018.61
2018-06-14T05:08:11.857Z,1018.59
2018-06-14T05:09:39.166Z,1018.59
2018-06-14T05:11:06.797Z,1018.59
2018-06-14T05:12:34.201Z,1018.62
2018-06-14T05:14:01.678Z,1018.61
2018-06-14T05:15:29.177Z,1018.63
2018-06-14T05:16:56.835Z,1018.63
2018-06-14T05:18:24.121Z,1018.61
2018-06-14T05:19:51.683Z,1018.60
2018-06-14T05:21:19.034Z,1018.59
2018-06-14T05:22:46.435Z,1018.60
2018-06-14T05:24:13.499Z,1018.59
2018-06-14T05:25:40.855Z,1018.60
2018-06-14T05:27:08.207Z,1018.56
2018-06-14T05:28:35.603Z,1018.56
2018-06-14T05:30:02.870Z,1018.56
2018-06-14T05:31:30.528Z,1018.54
2018-06-14T05:32:57.759Z,1018.55
2018-06-14T05:34:25.202Z,1018.52
2018-06-14T05:35:52.738Z,1018.47
2018-06-14T05:37:20.093Z,1018.46
2018-06-14T05:38:47.539Z,1018.47
2018-06-14T05:40:15.046Z,1018.49
2018-06-14T05:41:42.468Z,1018.52
2018-06-14T05:43:09.851Z,1018.53
2018-06-14T05:44:37.178Z,1018.49
2018-06-14T05:46:04.621Z,1018.49
2018-06-14T05:47:31.924Z,1018.50
2018-06-14T05:48:59.476Z,1018.51
2018-06-14T05:50:26.799Z,1018.52
2018-06-14T05:51:54.243Z,1018.54
2018-06-14T05:53:21.611Z,1018.56
2018-06-14T05:54:49.136Z,1018.56
2018-06-14T05:56:16.606Z,1018.56
2018-06-14T05:57:43.852Z,1018.53
2018-06-14T05:59:11.361Z,1018.55
2018-06-14T06:00:38.796Z,1018.59
2018-06-14T06:02:06.116Z,1018.59
2018-06-14T06:03:33.480Z,1018.62
2018-06-14T06:05:01.164Z,1018.62
2018-06-14T06:06:28.467Z,1018.64
2018-06-14T06:07:55.906Z,1018.63
2018-06-14T06:09:23.146Z,1018.64
2018-06-14T06:10:50.549Z,1018.62
2018-06-14T06:12:18.140Z,1018.61
2018-06-14T06:13:45.506Z,1018.61
2018-06-14T06:15:12.984Z,1018.61
2018-06-14T06:16:40.172Z,1018.64
2018-06-14T06:18:07.563Z,1018.67
2018-06-14T06:19:35.261Z,1018.69
2018-06-14T06:21:02.563Z,1018.70
2018-06-14T06:22:29.888Z,1018.69
2018-06-14T06:23:57.461Z,1018.67
2018-06-14T06:25:24.895Z,1018.65
2018-06-14T06:26:52.368Z,1018.65
2018-06-14T06:28:19.782Z,1018.64
2018-06-14T06:29:47.403Z,1018.64
2018-06-14T06:31:14.690Z,1018.62
2018-06-14T06:32:42.191Z,1018.62
2018-06-14T06:34:09.850Z,1018.62
2018-06-14T06:35:36.942Z,1018.63
2018-06-14T06:37:04.406Z,1018.64
2018-06-14T06:38:32.046Z,1018.63
2018-06-14T06:39:59.330Z,1018.64
2018-06-14T06:41:26.701Z,1018.62
2018-06-14T06:42:54.125Z,1018.62
2018-06-14T06:44:21.393Z,1018.62
2018-06-14T06:45:48.819Z,1018.63
2018-06-14T06:47:16.371Z,1018.59
2018-06-14T06:48:43.597Z,1018.57
2018-06-14T06:50:11.113Z,1018.57
2018-06-14T06:51:38.352Z,1018.57
2018-06-14T06:53:05.974Z,1018.53
2018-06-14T06:54:33.327Z,1018.49
2018-06-14T06:56:00.701Z,1018.48
2018-06-14T06:57:28.371Z,1018.47
2018-06-14T06:58:55.730Z,1018.44
2018-06-14T07:00:23.174Z,1018.44
2018-06-14T07:01:50.775Z,1018.44
2018-06-14T07:03:18.201Z,1018.44
2018-06-14T07:04:45.627Z,1018.46
2018-06-14T07:06:13.212Z,1018.47
2018-06-14T07:07:40.440Z,1018.47
2018-06-14T07:09:07.823Z,1018.44
2018-06-14T07:10:35.273Z,1018.49
2018-06-14T07:12:02.812Z,1018.46
2018-06-14T07:13:30.216Z,1018.43
2018-06-14T07:14:57.567Z,1018.41
2018-06-14T07:16:25.243Z,1018.38
2018-06-14T07:17:52.505Z,1018.38
2018-06-14T07:19:19.995Z,1018.36
2018-06-14T07:20:47.135Z,1018.37
2018-06-14T07:22:14.511Z,1018.36
2018-06-14T07:23:42.024Z,1018.33
2018-06-14T07:25:09.568Z,1018.32
2018-06-14T07:26:37.206Z,1018.30
2018-06-14T07:28:04.769Z,1018.28
2018-06-14T07:29:32.211Z,1018.26
2018-06-14T07:30:59.690Z,1018.25
2018-06-14T07:32:27.103Z,1018.26
2018-06-14T07:33:54.768Z,1018.25
2018-06-14T07:35:22.178Z,1018.28
2018-06-14T07:36:49.708Z,1018.28
2018-06-14T07:38:17.138Z,1018.28
2018-06-14T07:39:44.759Z,1018.27
2018-06-14T07:41:12.277Z,1018.29
2018-06-14T07:42:39.704Z,1018.26
2018-06-14T07:44:07.255Z,1018.24
2018-06-14T07:45:34.891Z,1018.20
2018-06-14T07:47:02.456Z,1018.20
2018-06-14T07:48:29.791Z,1018.28
2018-06-14T07:49:57.091Z,1018.29
2018-06-14T07:51:24.658Z,1018.24
2018-06-14T07:52:52.285Z,1018.23
2018-06-14T07:54:19.800Z,1018.23
2018-06-14T07:55:47.217Z,1018.23
2018-06-14T07:57:14.626Z,1018.22
2018-06-14T07:58:42.303Z,1018.22
2018-06-14T08:00:09.868Z,1018.24
2018-06-14T08:01:37.229Z,1018.23
2018-06-14T08:03:04.619Z,1018.22
2018-06-14T08:04:31.921Z,1018.22
2018-06-14T08:05:59.388Z,1018.22
2018-06-14T08:07:26.892Z,1018.23
2018-06-14T08:08:54.532Z,1018.23
2018-06-14T08:10:21.979Z,1018.24
2018-06-14T08:11:49.624Z,1018.23
2018-06-14T08:13:17.037Z,1018.19
2018-06-14T08:14:44.543Z,1018.24
2018-06-14T08:16:12.042Z,1018.19
2018-06-14T08:17:39.452Z,1018.15
2018-06-14T08:19:06.996Z,1018.17
2018-06-14T08:20:34.531Z,1018.14
2018-06-14T08:22:02.211Z,1018.15
2018-06-14T08:23:29.652Z,1018.12
2018-06-14T08:24:57.120Z,1018.04
2018-06-14T08:26:24.762Z,1018.00
2018-06-14T08:27:52.177Z,1018.01
2018-06-14T08:29:19.515Z,1017.98
2018-06-14T08:30:47.076Z,1017.96
2018-06-14T08:32:14.427Z,1017.92
2018-06-14T08:33:41.681Z,1017.94
2018-06-14T08:35:09.183Z,1017.90
2018-06-14T08:36:36.904Z,1017.90
2018-06-14T08:38:04.366Z,1017.90
2018-06-14T08:39:31.917Z,1017.92
2018-06-14T08:40:59.504Z,1017.91
2018-06-14T08:42:26.962Z,1017.92
2018-06-14T08:43:54.630Z,1017.93
2018-06-14T08:45:22.282Z,1017.93
2018-06-14T08:46:49.821Z,1017.92
2018-06-14T08:48:17.246Z,1017.90
2018-06-14T08:49:44.667Z,1017.90
2018-06-14T08:51:12.116Z,1017.87
2018-06-14T08:52:39.760Z,1017.88
2018-06-14T08:54:07.510Z,1017.87
2018-06-14T08:55:34.917Z,1017.89
2018-06-14T08:57:02.157Z,1017.88
2018-06-14T08:58:29.707Z,1017.88
2018-06-14T08:59:57.372Z,1017.86
2018-06-14T09:01:24.905Z,1017.83
2018-06-14T09:02:52.235Z,1017.82
2018-06-14T09:04:19.762Z,1017.81
2018-06-14T09:05:47.521Z,1017.81
2018-06-14T09:07:14.940Z,1017.79
2018-06-14T09:08:42.449Z,1017.77
2018-06-14T09:10:09.792Z,1017.75
2018-06-14T09:11:37.353Z,1017.77
2018-06-14T09:13:04.781Z,1017.75
2018-06-14T09:14:32.292Z,1017.77
2018-06-14T09:15:59.605Z,1017.73
2018-06-14T09:17:27.119Z,1017.76
2018-06-14T09:18:54.609Z,1017.79
2018-06-14T09:20:22.076Z,1017.83
2018-06-14T09:21:49.575Z,1017.82
2018-06-14T09:23:17.209Z,1017.84
2018-06-14T09:24:44.746Z,1017.83
2018-06-14T09:26:12.172Z,1017.83
2018-06-14T09:27:39.563Z,1017.83
2018-06-14T09:29:06.923Z,1017.83
2018-06-14T09:30:34.502Z,1017.84
2018-06-14T09:32:01.794Z,1017.84
2018-06-14T09:33:29.113Z,1017.83
2018-06-14T09:34:56.655Z,1017.81
2018-06-14T09:36:24.241Z,1017.82
2018-06-14T09:37:51.795Z,1017.85
2018-06-14T09:39:19.033Z,1017.81
2018-06-14T09:40:46.622Z,1017.80
2018-06-14T09:42:14.161Z,1017.79
2018-06-14T09:43:41.824Z,1017.73
2018-06-14T09:45:09.181Z,1017.70
2018-06-14T09:46:36.809Z,1017.67
2018-06-14T09:48:04.429Z,1017.67
2018-06-14T09:49:31.972Z,1017.69
2018-06-14T09:50:59.718Z,1017.70
2018-06-14T09:52:27.190Z,1017.67
2018-06-14T09:53:54.493Z,1017.65
2018-06-14T09:55:22.162Z,1017.65
2018-06-14T09:56:49.659Z,1017.67
2018-06-14T09:58:17.250Z,1017.63
2018-06-14T09:59:44.727Z,1017.62
2018-06-14T10:01:12.250Z,1017.61
2018-06-14T10:02:39.840Z,1017.61
2018-06-14T10:04:07.031Z,1017.63
2018-06-14T10:05:34.406Z,1017.61
2018-06-14T10:07:01.785Z,1017.63
2018-06-14T10:08:29.323Z,1017.59
2018-06-14T10:09:56.741Z,1017.60
2018-06-14T10:11:24.135Z,1017.58
2018-06-14T10:12:51.732Z,1017.58
2018-06-14T10:14:19.270Z,1017.62
2018-06-14T10:15:46.723Z,1017.59
2018-06-14T10:17:14.136Z,1017.57
2018-06-14T10:18:41.729Z,1017.55
2018-06-14T10:20:09.201Z,1017.55
2018-06-14T10:21:36.552Z,1017.53
2018-06-14T10:23:04.123Z,1017.55
2018-06-14T10:24:31.507Z,1017.59
2018-06-14T10:25:58.865Z,1017.57
2018-06-14T10:27:26.352Z,1017.57
2018-06-14T10:28:53.763Z,1017.57
2018-06-14T10:30:21.467Z,1017.53
2018-06-14T10:31:48.853Z,1017.50
2018-06-14T10:33:16.247Z,1017.48
2018-06-14T10:34:43.783Z,1017.46
2018-06-14T10:36:11.452Z,1017.42
2018-06-14T10:37:38.845Z,1017.39
2018-06-14T10:39:06.400Z,1017.38
2018-06-14T10:40:34.163Z,1017.36
2018-06-14T10:42:01.567Z,1017.34
2018-06-14T10:43:29.237Z,1017.34
2018-06-14T10:44:56.835Z,1017.32
2018-06-14T10:46:24.038Z,1017.28
2018-06-14T10:47:51.498Z,1017.29
2018-06-14T10:49:19.165Z,1017.31
2018-06-14T10:50:46.758Z,1017.31
2018-06-14T10:52:14.089Z,1017.31
2018-06-14T10:53:41.517Z,1017.30
2018-06-14T10:55:08.945Z,1017.31
2018-06-14T10:56:36.546Z,1017.29
2018-06-14T10:58:04.212Z,1017.25
2018-06-14T10:59:31.472Z,1017.26
2018-06-14T11:00:59.009Z,1017.22
2018-06-14T11:02:26.627Z,1017.19
2018-06-14T11:03:54.160Z,1017.18
2018-06-14T11:05:18.691Z,1017.21
2018-06-14T11:06:49.367Z,1017.22
2018-06-14T11:08:16.814Z,1017.24
2018-06-14T11:09:44.091Z,1017.22
2018-06-14T11:11:11.839Z,1017.15
2018-06-14T11:12:39.265Z,1017.13
2018-06-14T11:14:06.954Z,1017.12
2018-06-14T11:15:34.492Z,1017.08
2018-06-14T11:17:02.099Z,1017.08
2018-06-14T11:18:29.600Z,1017.04
2018-06-14T11:19:57.107Z,1017.01
2018-06-14T11:21:24.519Z,1017.01
2018-06-14T11:22:52.104Z,1017.01
2018-06-14T11:24:19.705Z,1016.98
2018-06-14T11:25:47.256Z,1016.98
2018-06-14T11:27:14.792Z,1016.98
2018-06-14T11:28:42.217Z,1016.95
2018-06-14T11:30:09.745Z,1016.92
2018-06-14T11:31:38.147Z,1016.96
2018-06-14T11:33:04.866Z,1016.97
2018-06-14T11:34:32.323Z,1016.94
2018-06-14T11:35:59.893Z,1016.88
2018-06-14T11:37:27.448Z,1016.85
2018-06-14T11:38:55.225Z,1016.84
2018-06-14T11:40:22.874Z,1016.83
2018-06-14T11:41:50.375Z,1016.85
2018-06-14T11:43:17.971Z,1016.88
2018-06-14T11:44:45.548Z,1016.89
2018-06-14T11:46:13.295Z,1016.85
2018-06-14T11:47:40.879Z,1016.83
2018-06-14T11:49:08.332Z,1016.84
2018-06-14T11:50:35.895Z,1016.80
2018-06-14T11:52:03.576Z,1016.80
2018-06-14T11:53:31.238Z,1016.82
2018-06-14T11:54:58.681Z,1016.79
2018-06-14T11:56:26.147Z,1016.87
2018-06-14T11:57:53.769Z,1016.87
2018-06-14T11:59:21.324Z,1016.84
2018-06-14T12:00:48.623Z,1016.80
2018-06-14T12:02:16.245Z,1016.81
2018-06-14T12:03:43.973Z,1016.80
2018-06-14T12:05:11.399Z,1016.78
2018-06-14T12:06:38.962Z,1016.80
2018-06-14T12:08:06.655Z,1016.80
2018-06-14T12:09:34.159Z,1016.78
2018-06-14T12:11:01.699Z,1016.75
2018-06-14T12:12:29.206Z,1016.80
2018-06-14T12:13:56.668Z,1016.77
2018-06-14T12:15:24.175Z,1016.76
2018-06-14T12:16:51.792Z,1016.80
2018-06-14T12:18:19.416Z,1016.82
2018-06-14T12:19:47.008Z,1016.79
2018-06-14T12:21:14.669Z,1016.78
2018-06-14T12:22:42.096Z,1016.80
2018-06-14T12:24:09.773Z,1016.80
2018-06-14T12:25:37.479Z,1016.82
2018-06-14T12:27:05.034Z,1016.79
2018-06-14T12:28:32.566Z,1016.77
2018-06-14T12:30:00.124Z,1016.77
2018-06-14T12:31:27.697Z,1016.77
2018-06-14T12:32:55.263Z,1016.77
2018-06-14T12:34:22.682Z,1016.76
2018-06-14T12:35:49.945Z,1016.73
2018-06-14T12:37:17.471Z,1016.70
2018-06-14T12:38:44.953Z,1016.70
2018-06-14T12:40:12.517Z,1016.68
2018-06-14T12:41:40.051Z,1016.67
2018-06-14T12:43:07.435Z,1016.64
2018-06-14T12:44:34.900Z,1016.66
2018-06-14T12:46:02.428Z,1016.64
2018-06-14T12:47:30.087Z,1016.61
2018-06-14T12:48:57.624Z,1016.58
2018-06-14T12:50:25.007Z,1016.57
2018-06-14T12:51:52.505Z,1016.55
2018-06-14T12:53:20.031Z,1016.45
2018-06-14T12:54:47.491Z,1016.48
2018-06-14T12:56:14.857Z,1016.46
2018-06-14T12:57:42.413Z,1016.50
2018-06-14T12:59:09.969Z,1016.46
2018-06-14T13:00:37.138Z,1016.44
2018-06-14T13:02:04.640Z,1016.43
2018-06-14T13:03:32.198Z,1016.41
2018-06-14T13:04:59.690Z,1016.43
2018-06-14T13:06:27.347Z,1016.41
2018-06-14T13:07:54.829Z,1016.40
2018-06-14T13:09:22.428Z,1016.38
2018-06-14T13:10:50.030Z,1016.35
2018-06-14T13:12:17.600Z,1016.35
2018-06-14T13:13:45.052Z,1016.29
2018-06-14T13:15:12.876Z,1016.24
2018-06-14T13:16:40.325Z,1016.20
2018-06-14T13:18:07.832Z,1016.19
2018-06-14T13:19:35.230Z,1016.20
2018-06-14T13:21:02.707Z,1016.20
2018-06-14T13:22:30.347Z,1016.21
2018-06-14T13:23:57.926Z,1016.17
2018-06-14T13:25:25.551Z,1016.10
2018-06-14T13:26:52.977Z,1016.13
2018-06-14T13:28:20.476Z,1016.14
2018-06-14T13:29:48.061Z,1016.09
2018-06-14T13:31:15.465Z,1016.06
2018-06-14T13:32:43.145Z,1016.11
2018-06-14T13:34:10.615Z,1016.04
2018-06-14T13:35:37.931Z,1016.00
2018-06-14T13:37:05.550Z,1016.00
2018-06-14T13:38:33.071Z,1015.99
2018-06-14T13:40:00.617Z,1016.03
2018-06-14T13:41:28.058Z,1016.02
2018-06-14T13:42:55.477Z,1016.01
2018-06-14T13:44:23.212Z,1015.98
2018-06-14T13:45:50.613Z,1015.97
2018-06-14T13:47:18.028Z,1015.94
2018-06-14T13:48:45.566Z,1015.92
2018-06-14T13:50:13.030Z,1015.91
2018-06-14T13:51:40.723Z,1015.89
2018-06-14T13:53:08.164Z,1015.86
2018-06-14T13:54:35.884Z,1015.85
2018-06-14T13:56:03.491Z,1015.85
2018-06-14T13:57:31.307Z,1015.85
2018-06-14T13:58:58.611Z,1015.80
2018-06-14T14:00:26.370Z,1015.75
2018-06-14T14:01:53.862Z,1015.77
2018-06-14T14:03:21.603Z,1015.75
2018-06-14T14:04:49.036Z,1015.76
2018-06-14T14:06:16.685Z,1015.79
2018-06-14T14:07:44.471Z,1015.78
2018-06-14T14:09:11.883Z,1015.83
2018-06-14T14:10:42.506Z,1015.82
2018-06-14T14:12:07.048Z,1015.81
2018-06-14T14:13:34.511Z,1015.79
2018-06-14T14:15:01.998Z,1015.79
2018-06-14T14:16:29.656Z,1015.78
2018-06-14T14:17:57.096Z,1015.78
2018-06-14T14:19:24.557Z,1015.76
2018-06-14T14:20:52.320Z,1015.80
2018-06-14T14:22:19.763Z,1015.77
2018-06-14T14:23:47.224Z,1015.79
2018-06-14T14:25:14.949Z,1015.82
2018-06-14T14:26:42.524Z,1015.81
2018-06-14T14:28:09.951Z,1015.80
2018-06-14T14:29:37.273Z,1015.78
2018-06-14T14:31:04.771Z,1015.76
2018-06-14T14:32:32.407Z,1015.78
2018-06-14T14:33:59.889Z,1015.77
2018-06-14T14:35:27.524Z,1015.75
2018-06-14T14:36:55.161Z,1015.78
2018-06-14T14:38:22.840Z,1015.78
2018-06-14T14:39:50.319Z,1015.78
2018-06-14T14:41:17.911Z,1015.76
2018-06-14T14:42:45.483Z,1015.79
2018-06-14T14:44:13.065Z,1015.75
2018-06-14T14:45:40.449Z,1015.71
2018-06-14T14:47:07.782Z,1015.67
2018-06-14T14:48:35.460Z,1015.63
2018-06-14T14:50:03.069Z,1015.63
2018-06-14T14:51:30.515Z,1015.62
2018-06-14T14:52:58.153Z,1015.63
2018-06-14T14:54:25.761Z,1015.62
2018-06-14T14:55:53.237Z,1015.59
2018-06-14T14:57:20.955Z,1015.53
2018-06-14T14:58:48.251Z,1015.56
2018-06-14T15:00:16.065Z,1015.59
2018-06-14T15:01:43.513Z,1015.61
2018-06-14T15:03:11.059Z,1015.59
2018-06-14T15:04:38.478Z,1015.58
2018-06-14T15:06:06.010Z,1015.63
2018-06-14T15:07:33.434Z,1015.61
2018-06-14T15:09:00.963Z,1015.62
2018-06-14T15:10:28.581Z,1015.60
2018-06-14T15:11:56.390Z,1015.57
2018-06-14T15:13:23.981Z,1015.56
2018-06-14T15:14:51.591Z,1015.57
2018-06-14T15:16:18.971Z,1015.60
2018-06-14T15:17:46.576Z,1015.61
2018-06-14T15:19:13.988Z,1015.64
2018-06-14T15:20:41.571Z,1015.60
2018-06-14T15:22:09.161Z,1015.58
2018-06-14T15:23:36.686Z,1015.55
2018-06-14T15:25:04.264Z,1015.59
2018-06-14T15:26:31.951Z,1015.59
2018-06-14T15:27:59.554Z,1015.55
2018-06-14T15:29:27.043Z,1015.55
2018-06-14T15:30:54.605Z,1015.51
2018-06-14T15:32:22.137Z,1015.50
2018-06-14T15:33:49.670Z,1015.46
2018-06-14T15:35:17.253Z,1015.46
2018-06-14T15:36:44.861Z,1015.49
2018-06-14T15:38:12.294Z,1015.50
2018-06-14T15:39:39.665Z,1015.48
2018-06-14T15:41:07.220Z,1015.48
2018-06-14T15:42:34.811Z,1015.48
2018-06-14T15:44:02.383Z,1015.48
2018-06-14T15:45:29.883Z,1015.46
2018-06-14T15:46:57.558Z,1015.49
2018-06-14T15:48:25.082Z,1015.47
2018-06-14T15:49:52.326Z,1015.48
2018-06-14T15:51:19.859Z,1015.47
2018-06-14T15:52:47.581Z,1015.45
2018-06-14T15:54:15.148Z,1015.42
2018-06-14T15:55:42.634Z,1015.44
2018-06-14T15:57:10.042Z,1015.42
2018-06-14T15:58:37.533Z,1015.40
2018-06-14T16:00:05.185Z,1015.37
2018-06-14T16:01:32.678Z,1015.38
2018-06-14T16:03:00.244Z,1015.36
2018-06-14T16:04:27.787Z,1015.32
2018-06-14T16:05:55.315Z,1015.31
2018-06-14T16:07:22.938Z,1015.31
2018-06-14T16:08:50.508Z,1015.28
2018-06-14T16:10:18.198Z,1015.29
2018-06-14T16:11:45.735Z,1015.27
2018-06-14T16:13:13.298Z,1015.29
2018-06-14T16:14:40.869Z,1015.28
2018-06-14T16:16:08.160Z,1015.29
2018-06-14T16:17:35.707Z,1015.27
2018-06-14T16:19:03.276Z,1015.25
2018-06-14T16:20:30.766Z,1015.25
2018-06-14T16:21:58.107Z,1015.24
2018-06-14T16:23:25.753Z,1015.28
2018-06-14T16:24:53.353Z,1015.29
2018-06-14T16:26:20.842Z,1015.28
2018-06-14T16:27:48.372Z,1015.28
2018-06-14T16:29:15.965Z,1015.27
2018-06-14T16:30:43.501Z,1015.27
2018-06-14T16:32:11.088Z,1015.28
2018-06-14T16:33:38.616Z,1015.24
2018-06-14T16:35:06.186Z,1015.26
2018-06-14T16:36:33.726Z,1015.23
2018-06-14T16:38:01.314Z,1015.22
2018-06-14T16:39:28.890Z,1015.24
2018-06-14T16:40:56.514Z,1015.26
2018-06-14T16:42:23.967Z,1015.27
2018-06-14T16:43:51.583Z,1015.28
2018-06-14T16:45:19.092Z,1015.30
2018-06-14T16:46:46.688Z,1015.29
2018-06-14T16:48:14.101Z,1015.31
2018-06-14T16:49:41.731Z,1015.30
2018-06-14T16:51:09.078Z,1015.29
2018-06-14T16:52:36.827Z,1015.31
2018-06-14T16:54:04.285Z,1015.30
2018-06-14T16:55:35.012Z,1015.26
2018-06-14T16:56:59.570Z,1015.25
2018-06-14T16:58:27.029Z,1015.25
2018-06-14T16:59:54.472Z,1015.21
2018-06-14T17:01:22.148Z,1015.24
2018-06-14T17:02:49.643Z,1015.25
2018-06-14T17:04:17.114Z,1015.26
2018-06-14T17:05:44.844Z,1015.26
2018-06-14T17:07:12.484Z,1015.29
2018-06-14T17:08:39.837Z,1015.29
2018-06-14T17:10:07.224Z,1015.28
2018-06-14T17:11:34.674Z,1015.25
2018-06-14T17:13:02.266Z,1015.25
2018-06-14T17:14:29.880Z,1015.24
2018-06-14T17:15:57.452Z,1015.20
2018-06-14T17:17:25.160Z,1015.22
2018-06-14T17:18:52.766Z,1015.24
2018-06-14T17:20:20.297Z,1015.26
2018-06-14T17:21:47.857Z,1015.27
2018-06-14T17:23:15.497Z,1015.26
2018-06-14T17:24:42.823Z,1015.31
2018-06-14T17:26:10.042Z,1015.32
2018-06-14T17:27:37.470Z,1015.34
2018-06-14T17:29:05.068Z,1015.37
2018-06-14T17:30:32.603Z,1015.40
2018-06-14T17:31:59.975Z,1015.38
2018-06-14T17:33:27.704Z,1015.41
2018-06-14T17:34:55.337Z,1015.42
2018-06-14T17:36:22.637Z,1015.44
2018-06-14T17:37:50.222Z,1015.43